Time;durP1;ratioP1;P1;durP2;ratioP2;P2;SDS_P1;SDS_P2;PMS_P1;PMS_P2;Temp;Humidity;BMP_temperature;BMP_pressure;BME280_temperature;BME280_humidity;BME280_pressure;Samples;Min_cycle;Max_cycle;Signal;HPM_P1;HPM_P2
2021/07/24 00:02:21;;;;;;;4.57;4.00;;;;;;;;;;5074923;28;20186;-85
2021/07/24 00:04:47;;;;;;;3.70;3.40;;;;;;;;;;5075366;28;20175;-84
2021/07/24 00:07:13;;;;;;;4.90;4.40;;;;;;;;;;5074234;28;20670;-85
2021/07/24 00:09:39;;;;;;;4.07;3.77;;;;;;;;;;5075010;28;20199;-85
2021/07/24 00:12:05;;;;;;;4.40;4.00;;;;;;;;;;5074673;28;20178;-85
2021/07/24 00:14:31;;;;;;;7.43;4.47;;;;;;;;;;5093216;28;20183;-84
2021/07/24 00:16:57;;;;;;;4.20;3.80;;;;;;;;;;5074936;28;20172;-84
2021/07/24 00:19:23;;;;;;;4.53;4.20;;;;;;;;;;5075259;28;20187;-84
2021/07/24 00:21:49;;;;;;;4.67;4.27;;;;;;;;;;5074701;28;20176;-84
2021/07/24 00:24:18;;;;;;;4.80;4.10;;;;;;;;;;5074644;28;20180;-84
2021/07/24 00:26:46;;;;;;;4.63;4.20;;;;;;;;;;5074716;28;20175;-85
2021/07/24 00:29:13;;;;;;;5.30;4.43;;;;;;;;;;5093030;28;20195;-84
2021/07/24 00:31:39;;;;;;;4.87;4.40;;;;;;;;;;5093131;28;20197;-84
2021/07/24 00:34:05;;;;;;;4.70;4.20;;;;;;;;;;5092518;28;20174;-85
2021/07/24 00:36:31;;;;;;;4.87;4.47;;;;;;;;;;5092403;28;20188;-85
2021/07/24 00:38:57;;;;;;;5.40;4.50;;;;;;;;;;5074847;28;20183;-84
2021/07/24 00:41:39;;;;;;;5.47;4.20;;;;;;;;;;5074714;28;20220;-84
2021/07/24 00:44:06;;;;;;;5.57;4.57;;;;;;;;;;5075483;28;20189;-84
2021/07/24 00:46:32;;;;;;;4.47;4.10;;;;;;;;;;5074942;28;20170;-84
2021/07/24 00:49:02;;;;;;;4.53;4.13;;;;;;;;;;5093099;28;20202;-84
2021/07/24 00:51:32;;;;;;;4.80;4.37;;;;;;;;;;5074469;28;20171;-84
2021/07/24 00:53:58;;;;;;;4.50;4.10;;;;;;;;;;5074564;28;20188;-84
2021/07/24 00:56:27;;;;;;;5.07;4.53;;;;;;;;;;5074478;28;20307;-84
2021/07/24 00:58:55;;;;;;;4.43;4.03;;;;;;;;;;5074652;28;20197;-84
2021/07/24 01:01:21;;;;;;;4.97;4.47;;;;;;;;;;5074389;28;20683;-84
2021/07/24 01:03:48;;;;;;;4.57;4.00;;;;;;;;;;5074687;28;20182;-85
2021/07/24 01:06:14;;;;;;;4.33;3.93;;;;;;;;;;5078346;28;20716;-84
2021/07/24 01:08:41;;;;;;;7.50;4.30;;;;;;;;;;5096312;28;20205;-84
2021/07/24 01:11:08;;;;;;;5.33;4.53;;;;;;;;;;5079069;28;20707;-84
2021/07/24 01:13:37;;;;;;;4.87;4.13;;;;;;;;;;5096290;28;20588;-84
2021/07/24 01:16:04;;;;;;;4.50;4.10;;;;;;;;;;5077876;28;20573;-84
2021/07/24 01:18:30;;;;;;;4.67;4.00;;;;;;;;;;5077980;28;20639;-84
2021/07/24 01:20:59;;;;;;;4.77;4.10;;;;;;;;;;5077845;28;20187;-84
2021/07/24 01:23:25;;;;;;;4.83;4.43;;;;;;;;;;5077556;28;20189;-84
2021/07/24 01:25:52;;;;;;;5.70;4.33;;;;;;;;;;5078142;28;20172;-84
2021/07/24 01:28:30;;;;;;;4.93;4.50;;;;;;;;;;5078250;28;20266;-84
2021/07/24 01:30:56;;;;;;;5.70;4.63;;;;;;;;;;5076877;28;20608;-83
2021/07/24 01:33:22;;;;;;;4.47;4.07;;;;;;;;;;5076514;28;20205;-84
2021/07/24 01:35:49;;;;;;;5.57;3.83;;;;;;;;;;5076294;28;20186;-84
2021/07/24 01:38:15;;;;;;;6.10;4.83;;;;;;;;;;5076837;28;20187;-84
2021/07/24 01:40:41;;;;;;;4.57;4.17;;;;;;;;;;5076902;28;20176;-84
2021/07/24 01:43:08;;;;;;;4.37;3.97;;;;;;;;;;5076279;28;20202;-84
2021/07/24 01:45:34;;;;;;;5.37;4.30;;;;;;;;;;5076966;28;20233;-84
2021/07/24 01:48:01;;;;;;;5.97;4.63;;;;;;;;;;5094764;28;20651;-84
2021/07/24 01:53:12;;;;;;;5.17;4.00;;;;;;;;;;5094321;28;20594;-84
2021/07/24 01:55:52;;;;;;;5.37;4.17;;;;;;;;;;5094556;28;20216;-83
2021/07/24 01:58:26;;;;;;;5.67;4.37;;;;;;;;;;5076338;28;20587;-84
2021/07/24 02:00:52;;;;;;;7.00;4.30;;;;;;;;;;5076284;28;20615;-84
2021/07/24 02:03:20;;;;;;;5.20;4.17;;;;;;;;;;5076204;28;20278;-84
2021/07/24 02:05:49;;;;;;;5.57;4.60;;;;;;;;;;5075883;28;20183;-84
2021/07/24 02:08:25;;;;;;;5.10;4.40;;;;;;;;;;5076543;28;20323;-84
2021/07/24 02:10:52;;;;;;;5.28;4.70;;;;;;;;;;5075495;28;20911;-84
2021/07/24 02:13:21;;;;;;;4.90;4.43;;;;;;;;;;5095258;28;20176;-84
2021/07/24 02:15:51;;;;;;;5.27;4.77;;;;;;;;;;5075696;28;20176;-84
2021/07/24 02:18:17;;;;;;;5.27;4.87;;;;;;;;;;5094476;28;20172;-83
2021/07/24 02:20:48;;;;;;;4.87;4.23;;;;;;;;;;5075736;28;20176;-83
2021/07/24 02:23:17;;;;;;;5.03;4.57;;;;;;;;;;5093834;28;20175;-83
2021/07/24 02:25:44;;;;;;;5.50;4.97;;;;;;;;;;5075349;28;20174;-84
2021/07/24 02:28:10;;;;;;;5.57;5.07;;;;;;;;;;5075561;28;20175;-83
2021/07/24 02:30:36;;;;;;;4.90;4.43;;;;;;;;;;5093727;28;20207;-83
2021/07/24 02:33:03;;;;;;;6.33;4.67;;;;;;;;;;5075465;28;20243;-83
2021/07/24 02:35:29;;;;;;;5.70;5.10;;;;;;;;;;5075628;28;20247;-83
2021/07/24 02:37:55;;;;;;;4.93;4.53;;;;;;;;;;5093108;28;20167;-83
2021/07/24 02:40:22;;;;;;;5.60;5.03;;;;;;;;;;5075357;28;20185;-83
2021/07/24 02:42:49;;;;;;;5.13;4.63;;;;;;;;;;5074978;28;20178;-83
2021/07/24 02:45:15;;;;;;;5.87;5.10;;;;;;;;;;5075228;28;20245;-84
2021/07/24 02:47:41;;;;;;;5.27;4.77;;;;;;;;;;5074865;28;20178;-84
2021/07/24 02:50:07;;;;;;;4.83;4.37;;;;;;;;;;5074893;28;20254;-84
2021/07/24 02:52:33;;;;;;;5.27;4.77;;;;;;;;;;5092955;28;20169;-84
2021/07/24 02:54:59;;;;;;;4.97;4.47;;;;;;;;;;5074924;28;20181;-84
2021/07/24 02:57:25;;;;;;;4.90;4.50;;;;;;;;;;5074985;28;20182;-84
2021/07/24 02:59:51;;;;;;;5.13;4.70;;;;;;;;;;5075392;28;20222;-83
2021/07/24 03:02:18;;;;;;;5.63;4.40;;;;;;;;;;5074756;28;20176;-84
2021/07/24 03:04:44;;;;;;;4.80;4.40;;;;;;;;;;5074838;28;20211;-84
2021/07/24 03:07:10;;;;;;;4.73;4.23;;;;;;;;;;5074519;28;20635;-84
2021/07/24 03:09:37;;;;;;;4.77;4.37;;;;;;;;;;5074969;28;20652;-84
2021/07/24 03:12:03;;;;;;;4.93;4.43;;;;;;;;;;5074886;28;20631;-84
2021/07/24 03:14:29;;;;;;;5.80;5.17;;;;;;;;;;5074941;28;20165;-84
2021/07/24 03:16:55;;;;;;;4.63;4.23;;;;;;;;;;5092889;28;20183;-83
2021/07/24 03:19:22;;;;;;;4.83;4.40;;;;;;;;;;5074781;28;20614;-84
2021/07/24 03:21:48;;;;;;;5.27;4.57;;;;;;;;;;5092148;28;20534;-84
2021/07/24 03:24:14;;;;;;;5.63;5.13;;;;;;;;;;5092768;28;20187;-84
2021/07/24 03:26:40;;;;;;;6.47;4.87;;;;;;;;;;5074289;28;20177;-83
2021/07/24 03:29:07;;;;;;;5.73;4.60;;;;;;;;;;5073991;28;20273;-83
2021/07/24 03:31:33;;;;;;;5.23;4.83;;;;;;;;;;5092541;28;20172;-83
2021/07/24 03:33:59;;;;;;;5.50;5.00;;;;;;;;;;5073935;28;20177;-83
2021/07/24 03:36:25;;;;;;;5.30;4.60;;;;;;;;;;5091929;28;20172;-83
2021/07/24 03:38:51;;;;;;;5.43;4.93;;;;;;;;;;5073925;28;20185;-83
2021/07/24 03:41:17;;;;;;;5.77;5.20;;;;;;;;;;5074029;28;20216;-83
2021/07/24 03:43:43;;;;;;;6.10;5.20;;;;;;;;;;5074138;28;20210;-83
2021/07/24 03:46:21;;;;;;;4.67;4.27;;;;;;;;;;5074115;28;20185;-83
2021/07/24 03:48:48;;;;;;;5.20;4.70;;;;;;;;;;5074155;28;20227;-83
2021/07/24 03:51:15;;;;;;;5.40;4.90;;;;;;;;;;5073713;28;20179;-83
2021/07/24 03:53:41;;;;;;;5.00;4.50;;;;;;;;;;5092107;28;20175;-83
2021/07/24 03:56:17;;;;;;;4.93;4.20;;;;;;;;;;5073675;28;20223;-82
2021/07/24 03:58:45;;;;;;;5.63;5.13;;;;;;;;;;5073933;28;20714;-82
2021/07/24 04:01:11;;;;;;;5.77;5.17;;;;;;;;;;5073689;28;20200;-83
2021/07/24 04:03:37;;;;;;;5.07;4.60;;;;;;;;;;5091752;28;20689;-83
2021/07/24 04:06:04;;;;;;;5.53;4.90;;;;;;;;;;5073301;28;20233;-83
2021/07/24 04:08:31;;;;;;;5.30;4.80;;;;;;;;;;5092167;28;20205;-83
2021/07/24 04:10:58;;;;;;;5.37;4.87;;;;;;;;;;5073980;28;20184;-83
2021/07/24 04:13:24;;;;;;;6.00;5.03;;;;;;;;;;5073698;28;20184;-83
2021/07/24 04:15:50;;;;;;;5.00;4.50;;;;;;;;;;5073770;28;20557;-83
2021/07/24 04:18:16;;;;;;;5.73;4.97;;;;;;;;;;5091944;28;20184;-83
2021/07/24 04:20:42;;;;;;;5.73;5.20;;;;;;;;;;5073605;28;20232;-83
2021/07/24 04:23:09;;;;;;;5.83;5.23;;;;;;;;;;5073738;28;20205;-83
2021/07/24 04:25:35;;;;;;;5.33;4.83;;;;;;;;;;5073476;28;20174;-83
2021/07/24 04:28:01;;;;;;;5.27;4.77;;;;;;;;;;5073563;28;20184;-83
2021/07/24 04:30:27;;;;;;;5.00;4.50;;;;;;;;;;5073723;28;20202;-83
2021/07/24 04:32:53;;;;;;;6.43;5.47;;;;;;;;;;5073792;28;20554;-83
2021/07/24 04:35:19;;;;;;;5.90;5.10;;;;;;;;;;5073969;28;20174;-83
2021/07/24 04:37:45;;;;;;;7.30;5.27;;;;;;;;;;5073273;28;20531;-83
2021/07/24 04:40:13;;;;;;;5.60;5.10;;;;;;;;;;5076058;28;20537;-83
2021/07/24 04:42:39;;;;;;;4.70;4.30;;;;;;;;;;5077522;28;20172;-83
2021/07/24 04:45:06;;;;;;;6.47;5.00;;;;;;;;;;5077636;28;20180;-82
2021/07/24 04:47:33;;;;;;;5.40;4.80;;;;;;;;;;5077602;28;20178;-83
2021/07/24 04:49:59;;;;;;;5.80;5.20;;;;;;;;;;5095711;28;20201;-83
2021/07/24 04:52:25;;;;;;;5.37;4.87;;;;;;;;;;5077413;28;20262;-83
2021/07/24 04:54:51;;;;;;;6.20;5.13;;;;;;;;;;5077593;28;20719;-83
2021/07/24 04:57:18;;;;;;;5.80;5.17;;;;;;;;;;5077276;28;20227;-83
2021/07/24 04:59:47;;;;;;;6.13;5.20;;;;;;;;;;5077345;28;20176;-83
2021/07/24 05:02:18;;;;;;;6.90;5.93;;;;;;;;;;5077052;28;20182;-83
2021/07/24 05:04:44;;;;;;;5.20;4.70;;;;;;;;;;5077183;28;20658;-83
2021/07/24 05:07:14;;;;;;;6.20;4.87;;;;;;;;;;5095377;28;20253;-82
2021/07/24 05:09:43;;;;;;;6.13;5.57;;;;;;;;;;5076622;28;20199;-83
2021/07/24 05:12:09;;;;;;;5.73;4.73;;;;;;;;;;5077098;28;20177;-83
2021/07/24 05:14:36;;;;;;;7.03;5.10;;;;;;;;;;5076621;28;20195;-84
2021/07/24 05:17:09;;;;;;;5.27;4.77;;;;;;;;;;5076657;28;20183;-83
2021/07/24 05:19:36;;;;;;;5.77;5.03;;;;;;;;;;5076804;28;20176;-83
2021/07/24 05:22:02;;;;;;;5.80;5.30;;;;;;;;;;5076600;28;20259;-83
2021/07/24 05:24:28;;;;;;;6.53;4.93;;;;;;;;;;5077194;28;20175;-83
2021/07/24 05:26:54;;;;;;;6.10;5.47;;;;;;;;;;5094829;28;20229;-83
2021/07/24 05:29:20;;;;;;;5.33;4.83;;;;;;;;;;5095112;28;20196;-83
2021/07/24 05:31:46;;;;;;;6.33;5.70;;;;;;;;;;5076644;28;20548;-83
2021/07/24 05:34:12;;;;;;;5.53;5.03;;;;;;;;;;5076941;28;20183;-83
2021/07/24 05:36:38;;;;;;;5.40;4.90;;;;;;;;;;5076145;28;20171;-83
2021/07/24 05:39:04;;;;;;;7.03;5.37;;;;;;;;;;5076922;28;20206;-83
2021/07/24 05:41:30;;;;;;;5.27;4.70;;;;;;;;;;5076600;28;20188;-83
2021/07/24 05:43:56;;;;;;;6.97;5.17;;;;;;;;;;5076217;28;20176;-83
2021/07/24 05:46:22;;;;;;;6.53;5.93;;;;;;;;;;5076323;28;20176;-83
2021/07/24 05:48:48;;;;;;;6.17;4.80;;;;;;;;;;5094445;28;20168;-83
2021/07/24 05:51:14;;;;;;;5.60;5.10;;;;;;;;;;5075512;28;20183;-83
2021/07/24 05:53:40;;;;;;;5.50;5.00;;;;;;;;;;5075883;28;20183;-83
2021/07/24 05:56:06;;;;;;;6.33;5.73;;;;;;;;;;5075821;28;20219;-83
2021/07/24 05:58:32;;;;;;;6.00;5.47;;;;;;;;;;5076447;28;20619;-83
2021/07/24 06:00:58;;;;;;;6.30;5.70;;;;;;;;;;5075923;28;20224;-83
2021/07/24 06:03:25;;;;;;;5.93;5.23;;;;;;;;;;5076437;28;20235;-83
2021/07/24 06:05:52;;;;;;;5.53;5.03;;;;;;;;;;5075770;28;20252;-83
2021/07/24 06:08:18;;;;;;;6.27;5.50;;;;;;;;;;5076145;28;20282;-83
2021/07/24 06:10:44;;;;;;;5.53;5.03;;;;;;;;;;5076124;28;20572;-83
2021/07/24 06:13:13;;;;;;;5.83;5.23;;;;;;;;;;5075984;28;20263;-83
2021/07/24 06:15:43;;;;;;;5.93;5.33;;;;;;;;;;5094391;28;20631;-83
2021/07/24 06:18:09;;;;;;;5.63;5.13;;;;;;;;;;5076213;28;20180;-83
2021/07/24 06:20:38;;;;;;;6.47;5.87;;;;;;;;;;5094103;28;20655;-83
2021/07/24 06:23:05;;;;;;;5.63;4.93;;;;;;;;;;5075832;28;20185;-83
2021/07/24 06:25:31;;;;;;;6.03;5.43;;;;;;;;;;5075527;28;20179;-83
2021/07/24 06:27:57;;;;;;;7.27;5.40;;;;;;;;;;5075713;28;20179;-83
2021/07/24 06:30:23;;;;;;;6.22;5.63;;;;;;;;;;5074737;28;20432;-83
2021/07/24 06:32:49;;;;;;;5.57;5.03;;;;;;;;;;5075407;28;20168;-83
2021/07/24 06:35:15;;;;;;;6.97;5.37;;;;;;;;;;5075944;28;20172;-83
2021/07/24 06:37:41;;;;;;;6.67;5.13;;;;;;;;;;5093790;28;20229;-83
2021/07/24 06:40:08;;;;;;;6.90;6.20;;;;;;;;;;5075421;28;20175;-82
2021/07/24 06:42:35;;;;;;;6.53;5.93;;;;;;;;;;5093482;28;20172;-84
2021/07/24 06:45:01;;;;;;;6.67;5.97;;;;;;;;;;5075630;28;20173;-83
2021/07/24 06:47:28;;;;;;;5.87;5.23;;;;;;;;;;5075662;28;20178;-83
2021/07/24 06:49:53;;;;;;;6.47;5.87;;;;;;;;;;5075425;28;20208;-83
2021/07/24 06:52:20;;;;;;;6.63;5.93;;;;;;;;;;5075025;28;20227;-83
2021/07/24 06:54:46;;;;;;;5.87;5.37;;;;;;;;;;5075271;28;20797;-84
2021/07/24 06:57:12;;;;;;;6.77;6.13;;;;;;;;;;5075341;28;20585;-84
2021/07/24 06:59:38;;;;;;;6.57;5.97;;;;;;;;;;5075376;28;20183;-83
2021/07/24 07:02:05;;;;;;;8.37;5.53;;;;;;;;;;5092880;28;20184;-83
2021/07/24 07:04:31;;;;;;;5.87;5.37;;;;;;;;;;5074870;28;20191;-84
2021/07/24 07:06:57;;;;;;;6.40;5.80;;;;;;;;;;5074625;28;20198;-83
2021/07/24 07:09:23;;;;;;;8.97;5.73;;;;;;;;;;5093352;28;20574;-83
2021/07/24 07:11:49;;;;;;;6.53;5.87;;;;;;;;;;5075059;28;20166;-83
2021/07/24 07:14:15;;;;;;;6.85;6.15;;;;;;;;;;5074688;28;20408;-83
2021/07/24 07:16:41;;;;;;;7.40;5.73;;;;;;;;;;5074961;28;20243;-83
2021/07/24 07:19:07;;;;;;;6.97;6.37;;;;;;;;;;5093196;28;20179;-83
2021/07/24 07:21:33;;;;;;;6.30;5.63;;;;;;;;;;5074648;28;20189;-83
2021/07/24 07:23:59;;;;;;;6.83;5.63;;;;;;;;;;5074698;28;20234;-84
2021/07/24 07:26:26;;;;;;;6.47;5.87;;;;;;;;;;5075061;28;20236;-83
2021/07/24 07:28:54;;;;;;;7.67;6.47;;;;;;;;;;5092836;28;20174;-83
2021/07/24 07:31:20;;;;;;;6.37;5.73;;;;;;;;;;5092915;28;20169;-83
2021/07/24 07:33:46;;;;;;;6.93;6.33;;;;;;;;;;5074924;28;20212;-83
2021/07/24 07:36:12;;;;;;;7.40;5.73;;;;;;;;;;5074215;28;20174;-83
2021/07/24 07:38:38;;;;;;;7.83;6.17;;;;;;;;;;5074322;28;20173;-83
2021/07/24 07:41:04;;;;;;;7.13;6.23;;;;;;;;;;5074853;28;20220;-84
2021/07/24 07:43:30;;;;;;;6.50;5.90;;;;;;;;;;5071220;28;20275;-83
2021/07/24 07:45:56;;;;;;;6.53;5.93;;;;;;;;;;5054848;28;20713;-83
2021/07/24 07:48:23;;;;;;;7.93;5.87;;;;;;;;;;5054856;28;20205;-83
2021/07/24 07:50:50;;;;;;;6.83;5.93;;;;;;;;;;5053982;28;20202;-83
2021/07/24 07:53:16;;;;;;;6.27;5.53;;;;;;;;;;5054411;28;20189;-83
2021/07/24 07:55:42;;;;;;;8.80;5.90;;;;;;;;;;5054219;28;20224;-83
2021/07/24 07:58:12;;;;;;;6.70;6.10;;;;;;;;;;5072450;28;20167;-83
2021/07/24 08:00:38;;;;;;;7.50;5.77;;;;;;;;;;5054724;28;20267;-83
2021/07/24 08:03:04;;;;;;;7.70;6.67;;;;;;;;;;5054537;28;20181;-83
2021/07/24 08:05:30;;;;;;;6.97;6.37;;;;;;;;;;5054856;28;20677;-83
2021/07/24 08:07:56;;;;;;;8.53;6.17;;;;;;;;;;5053808;28;20664;-83
2021/07/24 08:10:22;;;;;;;7.40;6.70;;;;;;;;;;5054146;28;20205;-83
2021/07/24 08:12:48;;;;;;;7.77;6.97;;;;;;;;;;5053746;28;20179;-83
2021/07/24 08:15:15;;;;;;;7.30;6.60;;;;;;;;;;5052902;28;20195;-83
2021/07/24 08:17:41;;;;;;;8.77;7.20;;;;;;;;;;5071400;28;20634;-83
2021/07/24 08:20:08;;;;;;;7.10;6.40;;;;;;;;;;5054148;28;20177;-83
2021/07/24 08:22:34;;;;;;;7.57;6.80;;;;;;;;;;5053265;28;20230;-83
2021/07/24 08:25:00;;;;;;;6.67;6.07;;;;;;;;;;5071493;28;20176;-82
2021/07/24 08:27:26;;;;;;;7.20;6.50;;;;;;;;;;5071834;28;20191;-83
2021/07/24 08:29:53;;;;;;;7.63;6.83;;;;;;;;;;5054185;28;20283;-83
2021/07/24 08:32:19;;;;;;;8.93;6.67;;;;;;;;;;5053596;28;20539;-83
2021/07/24 08:34:49;;;;;;;9.13;7.30;;;;;;;;;;5067112;28;20699;-83
2021/07/24 08:37:15;;;;;;;8.90;6.67;;;;;;;;;;5069971;28;20180;-83
2021/07/24 08:39:41;;;;;;;6.87;6.20;;;;;;;;;;5087104;28;20585;-83
2021/07/24 08:42:07;;;;;;;7.53;6.77;;;;;;;;;;5071939;28;20208;-83
2021/07/24 08:44:39;;;;;;;7.80;6.40;;;;;;;;;;5071809;28;20239;-83
2021/07/24 08:47:05;;;;;;;10.97;7.07;;;;;;;;;;5087067;28;20193;-83
2021/07/24 08:49:31;;;;;;;7.97;6.83;;;;;;;;;;5071644;28;20199;-83
2021/07/24 08:51:59;;;;;;;8.33;7.40;;;;;;;;;;5069398;28;20633;-83
2021/07/24 08:54:25;;;;;;;8.17;7.37;;;;;;;;;;5069913;28;20194;-83
2021/07/24 08:56:51;;;;;;;10.10;6.90;;;;;;;;;;5086653;28;20227;-83
2021/07/24 08:59:18;;;;;;;7.40;6.70;;;;;;;;;;5069757;28;20227;-83
2021/07/24 09:01:51;;;;;;;8.43;6.63;;;;;;;;;;5070137;28;20199;-83
2021/07/24 09:04:18;;;;;;;9.67;6.60;;;;;;;;;;5070314;28;20177;-83
2021/07/24 09:06:44;;;;;;;10.63;6.90;;;;;;;;;;5070904;28;20287;-83
2021/07/24 09:09:11;;;;;;;7.80;6.50;;;;;;;;;;5071308;28;20199;-83
2021/07/24 09:11:37;;;;;;;7.60;5.87;;;;;;;;;;5070503;28;20175;-83
2021/07/24 09:14:03;;;;;;;8.07;7.27;;;;;;;;;;5086700;28;20241;-83
2021/07/24 09:16:30;;;;;;;7.57;6.87;;;;;;;;;;5071798;28;20251;-83
2021/07/24 09:18:58;;;;;;;7.33;6.63;;;;;;;;;;5070520;28;20203;-83
2021/07/24 09:21:26;;;;;;;7.73;6.70;;;;;;;;;;5071166;28;20203;-83
2021/07/24 09:23:52;;;;;;;7.60;6.50;;;;;;;;;;5070157;28;20666;-83
2021/07/24 09:26:29;;;;;;;9.67;7.77;;;;;;;;;;5073977;28;20652;-83
2021/07/24 09:29:15;;;;;;;7.73;6.80;;;;;;;;;;5074149;28;20173;-83
2021/07/24 09:31:41;;;;;;;9.20;6.47;;;;;;;;;;5074000;28;20180;-83
2021/07/24 09:34:08;;;;;;;7.73;6.13;;;;;;;;;;5073639;28;20500;-83
2021/07/24 09:36:35;;;;;;;7.97;6.97;;;;;;;;;;5072898;28;20176;-84
2021/07/24 09:39:08;;;;;;;7.33;6.10;;;;;;;;;;5073391;28;20179;-84
2021/07/24 09:41:35;;;;;;;10.27;7.67;;;;;;;;;;5074989;28;20193;-84
2021/07/24 09:44:01;;;;;;;9.50;6.47;;;;;;;;;;5074557;28;20256;-83
2021/07/24 09:46:30;;;;;;;8.20;7.40;;;;;;;;;;5090219;28;20172;-83
2021/07/24 09:48:56;;;;;;;8.97;7.67;;;;;;;;;;5090242;28;20179;-83
2021/07/24 09:51:38;;;;;;;9.68;7.50;;;;;;;;;;5073586;28;20409;-83
2021/07/24 09:54:05;;;;;;;7.57;6.87;;;;;;;;;;5074523;28;20168;-83
2021/07/24 09:56:41;;;;;;;7.80;6.73;;;;;;;;;;5073273;28;20220;-82
2021/07/24 09:59:17;;;;;;;9.20;6.97;;;;;;;;;;5073530;28;20263;-82
2021/07/24 10:01:43;;;;;;;10.77;6.47;;;;;;;;;;5074950;28;20175;-82
2021/07/24 10:04:12;;;;;;;7.40;6.70;;;;;;;;;;5089580;28;20184;-84
2021/07/24 10:06:42;;;;;;;8.73;6.90;;;;;;;;;;5089207;28;20193;-84
2021/07/24 10:09:09;;;;;;;8.20;6.97;;;;;;;;;;5089759;28;20204;-84
2021/07/24 10:11:35;;;;;;;8.30;7.50;;;;;;;;;;5073902;28;20176;-83
2021/07/24 10:14:01;;;;;;;8.37;7.57;;;;;;;;;;5072562;28;20184;-83
2021/07/24 10:16:27;;;;;;;8.43;7.07;;;;;;;;;;5073124;28;20579;-84
2021/07/24 10:18:54;;;;;;;8.93;7.63;;;;;;;;;;5072893;28;20248;-84
2021/07/24 10:21:20;;;;;;;8.33;7.33;;;;;;;;;;5072378;28;20184;-84
2021/07/24 10:23:47;;;;;;;8.47;7.27;;;;;;;;;;5089196;28;20180;-85
2021/07/24 10:26:14;;;;;;;7.93;7.03;;;;;;;;;;5072671;28;20212;-84
2021/07/24 10:29:00;;;;;;;9.23;7.83;;;;;;;;;;5072594;28;20669;-85
2021/07/24 10:31:29;;;;;;;8.63;7.83;;;;;;;;;;5072201;28;20284;-84
2021/07/24 10:34:06;;;;;;;8.50;7.33;;;;;;;;;;5072307;28;20235;-84
2021/07/24 10:36:37;;;;;;;10.80;7.70;;;;;;;;;;5071431;28;20204;-85
2021/07/24 10:39:24;;;;;;;7.47;6.73;;;;;;;;;;5072170;28;20271;-85
2021/07/24 10:42:08;;;;;;;8.23;7.43;;;;;;;;;;5055561;28;20177;-84
2021/07/24 10:44:35;;;;;;;9.80;8.10;;;;;;;;;;5078024;28;20157;-84
2021/07/24 10:47:01;;;;;;;10.10;8.37;;;;;;;;;;5089059;28;20591;-83
2021/07/24 10:49:33;;;;;;;10.20;8.40;;;;;;;;;;5088910;28;20215;-83
2021/07/24 10:52:00;;;;;;;10.17;8.83;;;;;;;;;;5073228;28;20173;-84
2021/07/24 10:54:27;;;;;;;9.00;8.17;;;;;;;;;;5072074;28;20195;-83
2021/07/24 10:56:53;;;;;;;10.23;9.13;;;;;;;;;;5088631;28;20538;-83
2021/07/24 10:59:23;;;;;;;10.43;8.73;;;;;;;;;;5072354;28;20187;-83
2021/07/24 11:01:49;;;;;;;10.37;9.37;;;;;;;;;;5071811;28;20194;-83
2021/07/24 11:04:43;;;;;;;10.47;8.97;;;;;;;;;;5101491;28;20600;-83
2021/07/24 11:07:22;;;;;;;9.73;8.77;;;;;;;;;;5073698;28;20204;-83
2021/07/24 11:09:54;;;;;;;9.80;8.83;;;;;;;;;;5074740;28;20203;-83
2021/07/24 11:12:36;;;;;;;10.03;9.03;;;;;;;;;;5075508;28;20180;-83
2021/07/24 11:15:03;;;;;;;10.27;9.27;;;;;;;;;;5075070;28;20176;-83
2021/07/24 11:17:29;;;;;;;10.33;9.33;;;;;;;;;;5092935;28;20164;-83
2021/07/24 11:20:04;;;;;;;13.63;9.07;;;;;;;;;;5074852;28;20199;-83
2021/07/24 11:22:30;;;;;;;10.83;9.83;;;;;;;;;;5075889;28;20175;-84
2021/07/24 11:24:59;;;;;;;10.50;9.37;;;;;;;;;;5079411;28;20211;-84
2021/07/24 11:27:32;;;;;;;10.10;9.03;;;;;;;;;;5078136;28;20525;-82
2021/07/24 11:30:05;;;;;;;13.63;9.97;;;;;;;;;;5078412;28;20196;-84
2021/07/24 11:32:32;;;;;;;9.97;9.07;;;;;;;;;;5076950;28;20176;-84
2021/07/24 11:34:59;;;;;;;9.73;8.77;;;;;;;;;;5074751;28;20172;-82
2021/07/24 11:37:38;;;;;;;11.48;10.35;;;;;;;;;;5073343;28;20405;-85
2021/07/24 11:40:05;;;;;;;10.10;9.07;;;;;;;;;;5074209;28;20274;-85
2021/07/24 11:42:32;;;;;;;11.50;10.37;;;;;;;;;;5073891;28;20171;-84
2021/07/24 11:44:58;;;;;;;11.33;10.13;;;;;;;;;;5092417;28;20178;-84
2021/07/24 11:47:24;;;;;;;10.97;9.87;;;;;;;;;;5074280;28;20665;-84
2021/07/24 11:49:50;;;;;;;12.50;9.63;;;;;;;;;;5074066;28;20200;-84
2021/07/24 11:52:24;;;;;;;10.37;9.27;;;;;;;;;;5074071;28;20180;-84
2021/07/24 11:54:51;;;;;;;10.03;8.97;;;;;;;;;;5073853;28;20186;-84
2021/07/24 11:57:26;;;;;;;10.73;9.23;;;;;;;;;;5073765;28;20314;-84
2021/07/24 11:59:52;;;;;;;11.03;9.70;;;;;;;;;;5074142;28;20179;-84
2021/07/24 12:02:19;;;;;;;11.23;10.13;;;;;;;;;;5070640;28;20259;-80
2021/07/24 12:04:49;;;;;;;12.33;11.07;;;;;;;;;;5091485;28;20180;-79
2021/07/24 12:07:15;;;;;;;12.63;11.47;;;;;;;;;;5105474;27;20192;-81
2021/07/24 12:09:41;;;;;;;12.00;10.40;;;;;;;;;;5076278;28;20215;-79
2021/07/24 12:12:07;;;;;;;14.40;10.27;;;;;;;;;;5091192;28;20213;-79
2021/07/24 12:14:33;;;;;;;12.77;10.63;;;;;;;;;;5071823;28;20180;-81
2021/07/24 12:17:17;;;;;;;11.03;9.87;;;;;;;;;;5089107;28;20217;-80
2021/07/24 12:19:44;;;;;;;11.47;10.03;;;;;;;;;;5107038;28;20176;-79
2021/07/24 12:22:11;;;;;;;12.17;9.90;;;;;;;;;;5087980;28;20183;-78
2021/07/24 12:24:37;;;;;;;16.40;11.53;;;;;;;;;;5083077;28;20187;-79
2021/07/24 12:27:07;;;;;;;15.27;11.00;;;;;;;;;;5089863;28;21663;-79
2021/07/24 12:29:46;;;;;;;11.47;10.33;;;;;;;;;;5072863;28;20203;-80
2021/07/24 12:32:12;;;;;;;14.47;10.97;;;;;;;;;;5067325;28;20194;-78
2021/07/24 12:34:38;;;;;;;20.50;11.57;;;;;;;;;;5073845;28;20179;-79
2021/07/24 12:37:04;;;;;;;13.97;11.00;;;;;;;;;;5090115;28;20180;-78
2021/07/24 12:39:35;;;;;;;11.63;9.80;;;;;;;;;;5101839;28;20178;-80
2021/07/24 12:42:03;;;;;;;12.83;10.37;;;;;;;;;;5092191;28;20255;-79
2021/07/24 12:44:29;;;;;;;12.70;11.13;;;;;;;;;;5071227;28;20193;-79
2021/07/24 12:47:13;;;;;;;12.13;10.93;;;;;;;;;;5065298;28;20204;-79
2021/07/24 12:49:41;;;;;;;14.93;11.40;;;;;;;;;;5084649;28;20233;-80
2021/07/24 12:52:26;;;;;;;12.40;10.27;;;;;;;;;;5072490;28;20172;-78
2021/07/24 12:55:11;;;;;;;11.90;10.73;;;;;;;;;;5072794;28;20176;-80
2021/07/24 12:57:38;;;;;;;10.20;9.20;;;;;;;;;;5069897;28;20176;-79
2021/07/24 13:00:11;;;;;;;12.93;10.00;;;;;;;;;;5073285;28;20180;-79
2021/07/24 13:02:40;;;;;;;13.80;10.63;;;;;;;;;;5077039;28;20725;-79
2021/07/24 13:05:07;;;;;;;14.37;10.50;;;;;;;;;;5076927;28;20233;-80
2021/07/24 13:07:40;;;;;;;12.13;10.80;;;;;;;;;;5071480;28;20198;-79
2021/07/24 13:10:07;;;;;;;16.80;11.27;;;;;;;;;;5072613;28;20211;-79
2021/07/24 13:12:33;;;;;;;16.23;11.60;;;;;;;;;;5060835;28;20644;-80
2021/07/24 13:14:59;;;;;;;12.77;10.57;;;;;;;;;;5073195;28;20173;-80
2021/07/24 13:17:26;;;;;;;15.17;11.90;;;;;;;;;;5086069;28;20215;-82
2021/07/24 13:19:52;;;;;;;14.27;11.00;;;;;;;;;;5095246;28;20189;-81
2021/07/24 13:22:18;;;;;;;16.70;11.53;;;;;;;;;;5072452;28;20179;-81
2021/07/24 13:24:44;;;;;;;14.53;12.00;;;;;;;;;;5094721;28;20180;-81
2021/07/24 13:29:54;;;;;;;15.73;11.60;;;;;;;;;;5096261;28;20202;-81
2021/07/24 13:32:20;;;;;;;14.30;12.70;;;;;;;;;;5096706;28;20232;-81
2021/07/24 13:34:48;;;;;;;18.27;12.57;;;;;;;;;;5078636;28;20172;-82
2021/07/24 13:37:17;;;;;;;17.10;12.30;;;;;;;;;;5076844;28;20255;-81
2021/07/24 13:39:43;;;;;;;13.80;12.40;;;;;;;;;;5083809;28;20550;-81
2021/07/24 13:42:09;;;;;;;12.87;11.67;;;;;;;;;;5082366;28;20172;-81
2021/07/24 13:44:35;;;;;;;16.67;12.30;;;;;;;;;;5112265;28;20329;-81
2021/07/24 13:47:01;;;;;;;13.80;12.40;;;;;;;;;;5079169;28;20219;-81
2021/07/24 13:49:27;;;;;;;14.57;11.97;;;;;;;;;;5077293;28;20196;-81
2021/07/24 13:51:53;;;;;;;16.70;12.23;;;;;;;;;;5076964;28;20180;-80
2021/07/24 13:54:19;;;;;;;15.60;12.40;;;;;;;;;;5078208;28;20960;-81
2021/07/24 13:56:47;;;;;;;15.63;13.23;;;;;;;;;;5089865;28;20859;-81
2021/07/24 13:59:13;;;;;;;13.80;12.17;;;;;;;;;;5090932;28;20191;-81
2021/07/24 14:01:39;;;;;;;14.60;12.37;;;;;;;;;;5075730;28;20184;-81
2021/07/24 14:04:05;;;;;;;14.77;11.50;;;;;;;;;;5093748;28;20188;-81
2021/07/24 14:06:34;;;;;;;13.13;11.47;;;;;;;;;;5093001;28;20733;-78
2021/07/24 14:09:00;;;;;;;16.47;11.93;;;;;;;;;;5112747;28;20176;-82
2021/07/24 14:11:26;;;;;;;14.20;11.53;;;;;;;;;;5084346;28;20184;-81
2021/07/24 14:13:53;;;;;;;15.53;12.20;;;;;;;;;;5084981;28;20198;-81
2021/07/24 14:16:20;;;;;;;26.87;12.60;;;;;;;;;;5117243;28;20184;-81
2021/07/24 14:18:47;;;;;;;13.90;10.93;;;;;;;;;;5113360;28;20198;-81
2021/07/24 14:21:17;;;;;;;15.00;13.40;;;;;;;;;;5094458;28;20263;-77
2021/07/24 14:23:43;;;;;;;14.10;12.50;;;;;;;;;;5108895;28;20180;-77
2021/07/24 14:26:09;;;;;;;17.47;12.13;;;;;;;;;;5093685;28;20172;-80
2021/07/24 14:28:35;;;;;;;15.67;12.97;;;;;;;;;;5074833;28;20184;-80
2021/07/24 14:31:01;;;;;;;16.27;13.20;;;;;;;;;;5106613;28;20272;-80
2021/07/24 14:33:28;;;;;;;17.07;13.00;;;;;;;;;;5090490;28;20198;-80
2021/07/24 14:35:54;;;;;;;18.60;14.27;;;;;;;;;;5103281;28;20186;-79
2021/07/24 14:38:20;;;;;;;15.27;13.17;;;;;;;;;;5090677;28;20258;-80
2021/07/24 14:40:46;;;;;;;18.87;13.03;;;;;;;;;;5107123;28;20184;-80
2021/07/24 14:43:12;;;;;;;16.70;12.77;;;;;;;;;;5108733;28;20188;-80
2021/07/24 14:45:39;;;;;;;16.80;13.63;;;;;;;;;;5108854;28;20183;-80